createdAt,value
2022-09-01T00:00:13.783Z,97149.66
2022-09-01T00:01:21.085Z,97153.69
2022-09-01T00:02:27.280Z,97152.78
2022-09-01T00:03:29.970Z,97155.56
2022-09-01T00:04:32.365Z,97152.34
2022-09-01T00:05:34.415Z,97152.09
2022-09-01T00:06:36.805Z,97151.31
2022-09-01T00:07:38.603Z,97150.16
2022-09-01T00:08:40.526Z,97148.91
2022-09-01T00:09:42.399Z,97144.78
2022-09-01T00:10:44.352Z,97149.34
2022-09-01T00:11:50.397Z,97150.16
2022-09-01T00:12:52.932Z,97144.66
2022-09-01T00:13:55.845Z,97153.34
2022-09-01T00:14:57.733Z,97149.94
2022-09-01T00:16:04.550Z,97150.94
2022-09-01T00:17:07.980Z,97147.03
2022-09-01T00:18:09.806Z,97147.63
2022-09-01T00:19:11.631Z,97150.84
2022-09-01T00:20:17.080Z,97149.78
2022-09-01T00:21:24.539Z,97151.41
2022-09-01T00:22:26.542Z,97149.34
2022-09-01T00:23:28.725Z,97149.34
2022-09-01T00:24:30.935Z,97149.34
2022-09-01T00:25:32.790Z,97145.66
2022-09-01T00:26:34.760Z,97155.16
2022-09-01T00:27:36.995Z,97153.34
2022-09-01T00:28:39.842Z,97149.06
2022-09-01T00:29:43.347Z,97153.78
2022-09-01T00:30:45.845Z,97142.13
2022-09-01T00:31:48.242Z,97145.78
2022-09-01T00:32:50.044Z,97138.91
2022-09-01T00:33:52.715Z,97144.66
2022-09-01T00:34:54.590Z,97153.34
2022-09-01T00:35:56.538Z,97149.44
2022-09-01T00:36:58.413Z,97145.78
2022-09-01T00:38:00.270Z,97146.25
2022-09-01T00:39:03.956Z,97150.50
2022-09-01T00:40:06.610Z,97148.66
2022-09-01T00:41:08.637Z,97154.72
2022-09-01T00:42:11.625Z,97151.84
2022-09-01T00:43:44.674Z,97154.25
2022-09-01T00:44:46.691Z,97155.06
2022-09-01T00:45:50.135Z,97151.63
2022-09-01T00:46:55.190Z,97149.78
2022-09-01T00:47:57.664Z,97152.41
2022-09-01T00:49:02.324Z,97151.41
2022-09-01T00:50:06.588Z,97152.91
2022-09-01T00:51:09.778Z,97152.06
2022-09-01T00:52:21.335Z,97153.34
2022-09-01T00:53:23.794Z,97152.31
2022-09-01T00:54:27.958Z,97148.66
2022-09-01T00:55:32.677Z,97148.66
2022-09-01T00:56:38.002Z,97147.03
2022-09-01T00:57:40.009Z,97150.50
2022-09-01T00:58:42.749Z,97146.38
2022-09-01T00:59:50.029Z,97145.81
2022-09-01T01:00:53.060Z,97156.91
2022-09-01T01:01:55.633Z,97147.19
2022-09-01T01:02:57.979Z,97147.19
2022-09-01T01:04:02.919Z,97156.44
2022-09-01T01:05:06.134Z,97149.59
2022-09-01T01:06:09.476Z,97152.44
2022-09-01T01:07:12.318Z,97150.28
2022-09-01T01:08:14.130Z,97151.53
2022-09-01T01:09:20.791Z,97147.09
2022-09-01T01:10:23.424Z,97140.78
2022-09-01T01:11:26.594Z,97144.19
2022-09-01T01:12:31.107Z,97144.78
2022-09-01T01:13:36.520Z,97140.06
2022-09-01T01:14:40.254Z,97137.22
2022-09-01T01:15:44.900Z,97140.63
2022-09-01T01:16:48.425Z,97136.97
2022-09-01T01:17:50.723Z,97133.31
2022-09-01T01:18:53.251Z,97134.13
2022-09-01T01:20:14.686Z,97141.78
2022-09-01T01:21:57.646Z,97133.56
2022-09-01T01:23:10.445Z,97135.38
2022-09-01T01:24:28.556Z,97131.94
2022-09-01T01:25:36.255Z,97139.06
2022-09-01T01:26:38.016Z,97134.56
2022-09-01T01:27:43.111Z,97133.78
2022-09-01T01:28:45.106Z,97132.72
2022-09-01T01:29:47.951Z,97129.31
2022-09-01T01:30:52.717Z,97130.09
2022-09-01T01:31:54.885Z,97127.72
2022-09-01T01:32:58.060Z,97133.78
2022-09-01T01:34:02.060Z,97129.31
2022-09-01T01:35:06.227Z,97128.28
2022-09-01T01:36:19.623Z,97121.19
2022-09-01T01:37:25.709Z,97128.03
2022-09-01T01:38:28.211Z,97123.59
2022-09-01T01:39:30.001Z,97126.44
2022-09-01T01:40:31.798Z,97129.53
2022-09-01T01:41:34.298Z,97131.59
2022-09-01T01:42:38.187Z,97130.59
2022-09-01T01:43:40.036Z,97131.38
2022-09-01T01:44:42.849Z,97128.97
2022-09-01T01:45:44.741Z,97130.25
2022-09-01T01:46:50.533Z,97133.56
2022-09-01T01:47:56.665Z,97135.16
2022-09-01T01:48:58.647Z,97130.72
2022-09-01T01:50:00.478Z,97129.09
2022-09-01T01:51:02.936Z,97133.81
2022-09-01T01:52:04.986Z,97134.84
2022-09-01T01:53:12.306Z,97128.75
2022-09-01T01:54:15.984Z,97134.03
2022-09-01T01:55:19.647Z,97127.19
2022-09-01T01:56:25.841Z,97135.06
2022-09-01T01:57:33.222Z,97134.03
2022-09-01T01:58:36.365Z,97126.38
2022-09-01T01:59:41.077Z,97126.50
2022-09-01T02:00:44.781Z,97126.19
2022-09-01T02:01:49.612Z,97123.88
2022-09-01T02:02:54.736Z,97125.84
2022-09-01T02:03:57.267Z,97116.81
2022-09-01T02:05:02.263Z,97120.34
2022-09-01T02:06:08.044Z,97120.44
2022-09-01T02:07:12.239Z,97120.56
2022-09-01T02:08:16.039Z,97122.16
2022-09-01T02:09:19.495Z,97123.28
2022-09-01T02:10:22.054Z,97132.56
2022-09-01T02:11:26.447Z,97126.03
2022-09-01T02:12:28.217Z,97120.56
2022-09-01T02:13:32.863Z,97122.94
2022-09-01T02:14:34.816Z,97122.13
2022-09-01T02:15:43.665Z,97126.38
2022-09-01T02:16:45.723Z,97118.72
2022-09-01T02:17:49.104Z,97120.78
2022-09-01T02:18:51.494Z,97126.25
2022-09-01T02:19:58.100Z,97120.78
2022-09-01T02:21:01.312Z,97124.78
2022-09-01T02:22:03.148Z,97118.72
2022-09-01T02:23:10.958Z,97124.78
2022-09-01T02:24:13.164Z,97126.50
2022-09-01T02:25:16.901Z,97126.50
2022-09-01T02:26:19.378Z,97125.47
2022-09-01T02:27:23.501Z,97118.38
2022-09-01T02:28:25.385Z,97118.72
2022-09-01T02:29:29.736Z,97122.69
2022-09-01T02:30:35.089Z,97124.88
2022-09-01T02:31:40.196Z,97124.63
2022-09-01T02:32:42.139Z,97119.94
2022-09-01T02:33:47.610Z,97125.19
2022-09-01T02:34:53.932Z,97123.38
2022-09-01T02:35:57.629Z,97116.06
2022-09-01T02:36:59.547Z,97122.91
2022-09-01T02:38:01.445Z,97119.47
2022-09-01T02:39:04.152Z,97118.13
2022-09-01T02:40:07.571Z,97114.91
2022-09-01T02:41:09.405Z,97113.53
2022-09-01T02:42:15.375Z,97121.69
2022-09-01T02:43:20.802Z,97123.50
2022-09-01T02:44:23.406Z,97115.28
2022-09-01T02:45:25.447Z,97120.56
2022-09-01T02:46:27.319Z,97116.06
2022-09-01T02:47:29.729Z,97121.13
2022-09-01T02:48:37.984Z,97125.09
2022-09-01T02:49:40.954Z,97119.84
2022-09-01T02:50:42.779Z,97121.69
2022-09-01T02:51:45.864Z,97127.19
2022-09-01T02:52:49.595Z,97123.19
2022-09-01T02:53:53.118Z,97126.03
2022-09-01T02:54:55.860Z,97120.78
2022-09-01T02:55:59.801Z,97130.81
2022-09-01T02:57:01.767Z,97118.22
2022-09-01T02:58:03.982Z,97120.63
2022-09-01T02:59:13.204Z,97118.78
2022-09-01T03:00:33.704Z,97120.63
2022-09-01T03:01:35.569Z,97123.03
2022-09-01T03:02:37.533Z,97122.00
2022-09-01T03:03:39.355Z,97123.38
2022-09-01T03:04:41.190Z,97126.81
2022-09-01T03:05:43.343Z,97125.44
2022-09-01T03:06:45.666Z,97124.06
2022-09-01T03:07:47.563Z,97124.31
2022-09-01T03:08:49.495Z,97131.41
2022-09-01T03:09:52.813Z,97121.34
2022-09-01T03:10:54.585Z,97126.03
2022-09-01T03:11:56.517Z,97124.44
2022-09-01T03:13:09.294Z,97121.78
2022-09-01T03:14:12.562Z,97123.84
2022-09-01T03:15:14.329Z,97124.91
2022-09-01T03:16:16.551Z,97126.50
2022-09-01T03:17:18.396Z,97128.09
2022-09-01T03:18:20.422Z,97126.03
2022-09-01T03:19:22.346Z,97125.81
2022-09-01T03:20:24.114Z,97120.56
2022-09-01T03:21:26.285Z,97126.03
2022-09-01T03:22:29.845Z,97130.16
2022-09-01T03:23:31.720Z,97116.44
2022-09-01T03:24:33.623Z,97126.41
2022-09-01T03:25:37.052Z,97122.16
2022-09-01T03:26:38.943Z,97115.75
2022-09-01T03:27:40.963Z,97115.75
2022-09-01T03:28:42.777Z,97117.09
2022-09-01T03:29:44.698Z,97121.34
2022-09-01T03:30:47.739Z,97114.25
2022-09-01T03:31:49.808Z,97113.25
2022-09-01T03:32:52.322Z,97116.88
2022-09-01T03:33:57.148Z,97116.88
2022-09-01T03:35:00.124Z,97117.69
2022-09-01T03:36:01.980Z,97117.69
2022-09-01T03:37:08.212Z,97119.53
2022-09-01T03:38:13.057Z,97122.16
2022-09-01T03:39:16.864Z,97115.31
2022-09-01T03:40:19.362Z,97117.38
2022-09-01T03:41:25.337Z,97106.84
2022-09-01T03:42:31.357Z,97111.28
2022-09-01T03:43:36.136Z,97107.06
2022-09-01T03:44:41.249Z,97104.44
2022-09-01T03:45:43.716Z,97112.09
2022-09-01T03:46:45.959Z,97107.41
2022-09-01T03:47:48.558Z,97105.78
2022-09-01T03:48:52.677Z,97106.84
2022-09-01T03:49:55.899Z,97101.56
2022-09-01T03:51:02.913Z,97102.38
2022-09-01T03:52:04.804Z,97111.06
2022-09-01T03:53:08.104Z,97111.28
2022-09-01T03:54:10.463Z,97112.09
2022-09-01T03:55:12.861Z,97106.50
2022-09-01T03:56:15.534Z,97106.72
2022-09-01T03:57:17.323Z,97111.75
2022-09-01T03:58:21.580Z,97112.78
2022-09-01T03:59:24.913Z,97114.59
2022-09-01T04:00:30.190Z,97109.56
2022-09-01T04:01:35.082Z,97107.75
2022-09-01T04:02:36.995Z,97106.72
2022-09-01T04:03:39.959Z,97107.28
2022-09-01T04:04:41.967Z,97112.53
2022-09-01T04:05:44.839Z,97112.78
2022-09-01T04:06:46.769Z,97110.97
2022-09-01T04:07:50.560Z,97108.06
2022-09-01T04:09:03.225Z,97116.22
2022-09-01T04:10:05.747Z,97106.50
2022-09-01T04:11:16.701Z,97108.06
2022-09-01T04:12:18.512Z,97106.25
2022-09-01T04:13:22.884Z,97105.44
2022-09-01T04:14:30.042Z,97108.91
2022-09-01T04:15:35.281Z,97106.25
2022-09-01T04:16:55.808Z,97107.06
2022-09-01T04:18:20.574Z,97112.09
2022-09-01T04:19:27.991Z,97112.09
2022-09-01T04:20:29.822Z,97111.06
2022-09-01T04:21:32.260Z,97107.63
2022-09-01T04:22:36.228Z,97114.72
2022-09-01T04:23:38.015Z,97114.72
2022-09-01T04:24:44.862Z,97115.53
2022-09-01T04:25:49.537Z,97112.09
2022-09-01T04:26:52.540Z,97126.84
2022-09-01T04:27:57.419Z,97118.16
2022-09-01T04:28:59.269Z,97118.16
2022-09-01T04:30:01.760Z,97116.78
2022-09-01T04:31:06.238Z,97115.19
2022-09-01T04:32:13.395Z,97115.09
2022-09-01T04:33:17.139Z,97109.59
2022-09-01T04:34:19.022Z,97108.47
2022-09-01T04:35:32.889Z,97115.88
2022-09-01T04:36:45.089Z,97115.44
2022-09-01T04:37:47.899Z,97112.13
2022-09-01T04:38:54.765Z,97114.16
2022-09-01T04:39:57.743Z,97112.13
2022-09-01T04:41:03.146Z,97110.53
2022-09-01T04:42:07.045Z,97112.69
2022-09-01T04:43:09.623Z,97111.41
2022-09-01T04:44:11.498Z,97115.88
2022-09-01T04:45:17.405Z,97115.31
2022-09-01T04:46:23.151Z,97107.66
2022-09-01T04:47:35.509Z,97107.66
2022-09-01T04:48:38.707Z,97114.31
2022-09-01T04:49:40.450Z,97119.56
2022-09-01T04:50:42.269Z,97115.78
2022-09-01T04:51:45.194Z,97110.75
2022-09-01T04:52:48.059Z,97118.88
2022-09-01T04:53:50.906Z,97123.91
2022-09-01T04:54:52.720Z,97126.31
2022-09-01T04:55:55.044Z,97121.06
2022-09-01T04:56:56.952Z,97119.44
2022-09-01T04:57:59.989Z,97112.59
2022-09-01T04:59:07.176Z,97115.78
2022-09-01T05:00:22.711Z,97115.09
2022-09-01T05:01:25.886Z,97114.03
2022-09-01T05:02:29.251Z,97111.66
2022-09-01T05:03:32.297Z,97112.13
2022-09-01T05:04:34.207Z,97112.59
2022-09-01T05:05:39.616Z,97118.72
2022-09-01T05:06:42.845Z,97113.34
2022-09-01T05:07:44.696Z,97120.19
2022-09-01T05:08:46.779Z,97117.56
2022-09-01T05:09:48.686Z,97119.75
2022-09-01T05:10:53.573Z,97117.50
2022-09-01T05:11:56.851Z,97117.03
2022-09-01T05:12:58.786Z,97108.69
2022-09-01T05:14:00.599Z,97107.91
2022-09-01T05:15:09.229Z,97109.47
2022-09-01T05:16:13.438Z,97110.53
2022-09-01T05:17:17.570Z,97107.66
2022-09-01T05:18:28.485Z,97105.84
2022-09-01T05:19:31.178Z,97107.19
2022-09-01T05:20:33.023Z,97109.59
2022-09-01T05:21:38.090Z,97117.03
2022-09-01T05:22:41.361Z,97118.06
2022-09-01T05:23:47.265Z,97122.50
2022-09-01T05:24:55.300Z,97114.03
2022-09-01T05:25:57.536Z,97114.88
2022-09-01T05:27:00.618Z,97120.13
2022-09-01T05:28:03.584Z,97120.94
2022-09-01T05:29:10.935Z,97119.56
2022-09-01T05:30:12.919Z,97115.78
2022-09-01T05:31:14.999Z,97126.31
2022-09-01T05:32:17.058Z,97118.66
2022-09-01T05:33:21.815Z,97116.44
2022-09-01T05:34:27.460Z,97118.72
2022-09-01T05:35:32.786Z,97121.94
2022-09-01T05:36:34.915Z,97117.28
2022-09-01T05:37:37.824Z,97117.84
2022-09-01T05:38:42.741Z,97115.78
2022-09-01T05:39:44.619Z,97119.00
2022-09-01T05:40:55.473Z,97109.25
2022-09-01T05:41:58.891Z,97125.84
2022-09-01T05:43:01.234Z,97114.53
2022-09-01T05:44:08.371Z,97112.69
2022-09-01T05:45:12.073Z,97112.69
2022-09-01T05:46:17.935Z,97122.75
2022-09-01T05:47:21.931Z,97114.03
2022-09-01T05:48:24.139Z,97115.66
2022-09-01T05:49:28.964Z,97116.44
2022-09-01T05:50:31.719Z,97119.66
2022-09-01T05:51:45.431Z,97119.66
2022-09-01T05:52:48.186Z,97109.13
2022-09-01T05:53:55.302Z,97115.44
2022-09-01T05:55:00.512Z,97114.41
2022-09-01T05:56:08.087Z,97114.16
2022-09-01T05:57:32.563Z,97113.69
2022-09-01T05:59:54.442Z,97117.47
2022-09-01T06:00:59.438Z,97109.34
2022-09-01T06:02:01.377Z,97117.81
2022-09-01T06:03:04.987Z,97117.38
2022-09-01T06:04:08.142Z,97125.25
2022-09-01T06:05:11.277Z,97118.38
2022-09-01T06:06:13.091Z,97120.22
2022-09-01T06:07:16.600Z,97125.34
2022-09-01T06:08:24.100Z,97125.34
2022-09-01T06:09:25.882Z,97126.50
2022-09-01T06:10:28.714Z,97124.69
2022-09-01T06:11:33.415Z,97127.06
2022-09-01T06:12:35.295Z,97122.94
2022-09-01T06:13:37.529Z,97119.53
2022-09-01T06:14:39.402Z,97120.00
2022-09-01T06:15:41.261Z,97130.53
2022-09-01T06:16:44.535Z,97118.94
2022-09-01T06:17:47.398Z,97131.88
2022-09-01T06:18:50.752Z,97122.63
2022-09-01T06:19:57.116Z,97120.78
2022-09-01T06:20:59.064Z,97124.78
2022-09-01T06:22:02.000Z,97118.50
2022-09-01T06:23:03.909Z,97123.53
2022-09-01T06:24:07.308Z,97117.22
2022-09-01T06:25:09.732Z,97124.91
2022-09-01T06:26:19.000Z,97114.59
2022-09-01T06:27:21.485Z,97122.50
2022-09-01T06:28:24.143Z,97119.88
2022-09-01T06:29:25.945Z,97127.31
2022-09-01T06:30:27.863Z,97126.50
2022-09-01T06:31:34.366Z,97118.38
2022-09-01T06:32:38.741Z,97133.72
2022-09-01T06:33:41.074Z,97132.66
2022-09-01T06:34:44.780Z,97135.06
2022-09-01T06:35:47.950Z,97136.09
2022-09-01T06:36:52.006Z,97136.91
2022-09-01T06:37:54.564Z,97136.91
2022-09-01T06:38:56.403Z,97140.34
2022-09-01T06:39:58.165Z,97134.50
2022-09-01T06:41:04.505Z,97131.66
2022-09-01T06:42:07.095Z,97128.75
2022-09-01T06:43:12.472Z,97131.41
2022-09-01T06:44:15.057Z,97140.91
2022-09-01T06:45:18.123Z,97131.41
2022-09-01T06:46:20.728Z,97138.28
2022-09-01T06:47:22.672Z,97137.47
2022-09-01T06:48:24.605Z,97134.03
2022-09-01T06:49:32.809Z,97128.75
2022-09-01T06:51:56.684Z,97137.94
2022-09-01T06:54:35.891Z,97137.22
2022-09-01T06:55:42.052Z,97146.53
2022-09-01T06:56:44.912Z,97150.16
2022-09-01T06:58:09.543Z,97141.94
2022-09-01T06:59:15.843Z,97142.75
2022-09-01T07:00:20.519Z,97149.03
2022-09-01T07:01:24.336Z,97149.81
2022-09-01T07:02:27.016Z,97145.84
2022-09-01T07:03:29.118Z,97150.31
2022-09-01T07:04:32.247Z,97149.25
2022-09-01T07:07:53.258Z,97145.69
2022-09-01T07:08:20.488Z,97149.47
2022-09-01T07:09:47.285Z,97147.19
2022-09-01T07:13:31.046Z,97145.91
2022-09-01T07:16:30.112Z,97153.22
2022-09-01T07:17:23.139Z,97153.50
2022-09-01T07:18:26.021Z,97160.13
2022-09-01T07:19:48.335Z,97156.78
2022-09-01T07:21:36.917Z,97157.13
2022-09-01T07:22:35.617Z,97155.06
2022-09-01T07:25:11.754Z,97156.06
2022-09-01T07:26:25.797Z,97157.88
2022-09-01T07:27:36.090Z,97155.03
2022-09-01T07:28:42.417Z,97163.72
2022-09-01T07:29:44.293Z,97157.19
2022-09-01T07:30:48.907Z,97160.63
2022-09-01T07:34:39.630Z,97161.97
2022-09-01T07:36:25.723Z,97170.66
2022-09-01T07:39:51.239Z,97172.13
2022-09-01T07:42:30.687Z,97162.59
2022-09-01T07:43:40.310Z,97171.84
2022-09-01T07:44:44.117Z,97174.25
2022-09-01T07:46:36.723Z,97172.41
2022-09-01T07:47:20.179Z,97173.81
2022-09-01T07:50:12.358Z,97175.63
2022-09-01T07:51:35.495Z,97171.53
2022-09-01T07:52:29.496Z,97170.28
2022-09-01T07:53:33.378Z,97180.59
2022-09-01T07:54:37.606Z,97181.38
2022-09-01T07:55:44.042Z,97176.66
2022-09-01T07:56:46.031Z,97181.47
2022-09-01T07:57:47.946Z,97181.22
2022-09-01T07:58:50.660Z,97179.66
2022-09-01T07:59:55.802Z,97188.13
2022-09-01T08:01:03.115Z,97175.50
2022-09-01T08:02:06.011Z,97181.34
2022-09-01T08:03:08.133Z,97175.81
2022-09-01T08:04:10.103Z,97179.28
2022-09-01T08:05:14.717Z,97180.06
2022-09-01T08:06:21.511Z,97184.06
2022-09-01T08:07:23.508Z,97188.09
2022-09-01T08:08:29.114Z,97182.81
2022-09-01T08:09:38.131Z,97181.78
2022-09-01T08:10:48.982Z,97190.03
2022-09-01T08:12:01.647Z,97188.53
2022-09-01T08:13:04.299Z,97182.78
2022-09-01T08:14:06.497Z,97183.91
2022-09-01T08:15:13.005Z,97182.41
2022-09-01T08:16:18.101Z,97182.28
2022-09-01T08:17:51.675Z,97179.28
2022-09-01T08:18:50.761Z,97189.09
2022-09-01T08:19:54.054Z,97183.75
2022-09-01T08:20:55.978Z,97182.69
2022-09-01T08:21:57.855Z,97187.25
2022-09-01T08:22:59.694Z,97181.97
2022-09-01T08:24:01.585Z,97182.31
2022-09-01T08:25:03.498Z,97188.72
2022-09-01T08:26:09.923Z,97189.03
2022-09-01T08:27:11.752Z,97186.19
2022-09-01T08:28:14.342Z,97192.25
2022-09-01T08:29:16.258Z,97193.38
2022-09-01T08:30:18.287Z,97189.78
2022-09-01T08:31:20.369Z,97188.03
2022-09-01T08:32:22.725Z,97193.38
2022-09-01T08:33:26.399Z,97192.41
2022-09-01T08:34:28.300Z,97202.00
2022-09-01T08:35:30.227Z,97195.22
2022-09-01T08:36:33.639Z,97189.47
2022-09-01T08:37:35.682Z,97190.81
2022-09-01T08:38:37.498Z,97182.69
2022-09-01T08:39:39.544Z,97189.81
2022-09-01T08:40:42.587Z,97184.28
2022-09-01T08:41:56.743Z,97187.72
2022-09-01T08:43:20.966Z,97185.31
2022-09-01T08:44:32.935Z,97179.25
2022-09-01T08:45:47.747Z,97191.88
2022-09-01T08:46:54.683Z,97186.94
2022-09-01T08:48:36.757Z,97189.56
2022-09-01T08:49:26.902Z,97188.50
2022-09-01T08:50:29.422Z,97196.44
2022-09-01T08:51:31.240Z,97201.72
2022-09-01T08:52:37.710Z,97198.84
2022-09-01T08:53:52.766Z,97196.19
2022-09-01T08:54:59.113Z,97198.09
2022-09-01T08:56:01.054Z,97194.22
2022-09-01T08:57:07.028Z,97195.59
2022-09-01T08:58:10.444Z,97193.50
2022-09-01T08:59:12.861Z,97194.06
2022-09-01T09:00:18.434Z,97195.41
2022-09-01T09:01:31.771Z,97193.81
2022-09-01T09:02:54.205Z,97191.97
2022-09-01T09:04:25.136Z,97191.72
2022-09-01T09:05:26.944Z,97189.91
2022-09-01T09:06:35.854Z,97190.69
2022-09-01T09:07:37.683Z,97189.41
2022-09-01T09:08:39.422Z,97185.47
2022-09-01T09:09:49.307Z,97178.38
2022-09-01T09:11:04.031Z,97182.59
2022-09-01T09:12:23.874Z,97180.28
2022-09-01T09:13:36.659Z,97180.09
2022-09-01T09:14:44.346Z,97182.81
2022-09-01T09:16:15.542Z,97180.72
2022-09-01T09:17:20.224Z,97194.00
2022-09-01T09:18:39.287Z,97183.50
2022-09-01T09:19:43.059Z,97182.44
2022-09-01T09:20:45.643Z,97186.69
2022-09-01T09:21:48.736Z,97180.34
2022-09-01T09:22:51.361Z,97181.19
2022-09-01T09:24:01.260Z,97179.88
2022-09-01T09:25:07.046Z,97185.97
2022-09-01T09:26:08.856Z,97185.16
2022-09-01T09:27:11.179Z,97181.50
2022-09-01T09:28:14.914Z,97179.09
2022-09-01T09:29:16.999Z,97182.28
2022-09-01T09:30:24.691Z,97182.06
2022-09-01T09:31:37.618Z,97183.41
2022-09-01T09:33:19.944Z,97185.25
2022-09-01T09:34:16.416Z,97182.88
2022-09-01T09:35:19.180Z,97180.00
2022-09-01T09:36:25.611Z,97183.22
2022-09-01T09:37:29.979Z,97182.72
2022-09-01T09:38:33.857Z,97178.00
2022-09-01T09:39:37.236Z,97178.56
2022-09-01T09:41:06.710Z,97180.13
2022-09-01T09:42:21.260Z,97177.25
2022-09-01T09:43:25.543Z,97175.94
2022-09-01T09:44:32.139Z,97173.06
2022-09-01T09:45:41.675Z,97179.69
2022-09-01T09:46:45.011Z,97178.66
2022-09-01T09:47:47.112Z,97174.97
2022-09-01T09:48:50.611Z,97176.56
2022-09-01T09:50:10.726Z,97172.88
2022-09-01T09:51:16.600Z,97166.00
2022-09-01T09:52:19.429Z,97172.88
2022-09-01T09:53:27.126Z,97172.88
2022-09-01T09:54:33.264Z,97183.44
2022-09-01T09:55:35.081Z,97175.75
2022-09-01T09:56:36.954Z,97182.66
2022-09-01T09:57:39.984Z,97173.44
2022-09-01T09:58:43.558Z,97176.88
2022-09-01T10:00:03.361Z,97170.00
2022-09-01T10:01:17.740Z,97175.53
2022-09-01T10:02:31.394Z,97173.44
2022-09-01T10:03:57.360Z,97175.91
2022-09-01T10:05:00.574Z,97174.66
2022-09-01T10:06:02.788Z,97169.66
2022-09-01T10:07:23.763Z,97165.41
2022-09-01T10:08:28.401Z,97176.22
2022-09-01T10:09:30.552Z,97172.44
2022-09-01T10:10:32.341Z,97173.50
2022-09-01T10:11:42.579Z,97179.78
2022-09-01T10:12:45.849Z,97170.75
2022-09-01T10:13:47.845Z,97168.56
2022-09-01T10:15:05.546Z,97177.00
2022-09-01T10:16:21.874Z,97165.88
2022-09-01T10:17:28.866Z,97167.97
2022-09-01T10:18:42.069Z,97170.53
2022-09-01T10:19:49.565Z,97166.31
2022-09-01T10:21:00.685Z,97172.63
2022-09-01T10:22:03.743Z,97172.63
2022-09-01T10:23:05.914Z,97171.28
2022-09-01T10:24:30.989Z,97178.97
2022-09-01T10:25:35.325Z,97177.94
2022-09-01T10:26:39.304Z,97175.22
2022-09-01T10:27:44.435Z,97162.56
2022-09-01T10:29:15.843Z,97164.94
2022-09-01T10:30:24.264Z,97157.56
2022-09-01T10:31:29.529Z,97157.34
2022-09-01T10:32:49.181Z,97163.16
2022-09-01T10:33:53.053Z,97155.31
2022-09-01T10:34:56.173Z,97158.50
2022-09-01T10:36:01.467Z,97161.16
2022-09-01T10:37:04.039Z,97158.75
2022-09-01T10:38:11.919Z,97156.09
2022-09-01T10:39:15.097Z,97159.31
2022-09-01T10:40:31.370Z,97155.59
2022-09-01T10:41:42.714Z,97159.63
2022-09-01T10:42:49.096Z,97156.47
2022-09-01T10:43:52.325Z,97152.22
2022-09-01T10:44:58.150Z,97146.94
2022-09-01T10:46:05.708Z,97152.78
2022-09-01T10:47:30.385Z,97154.13
2022-09-01T10:48:46.186Z,97147.63
2022-09-01T10:49:50.582Z,97154.13
2022-09-01T10:51:11.122Z,97150.56
2022-09-01T10:52:38.837Z,97146.38
2022-09-01T10:53:42.159Z,97155.47
2022-09-01T10:54:51.805Z,97150.75
2022-09-01T10:56:17.526Z,97149.59
2022-09-01T10:57:27.038Z,97151.34
2022-09-01T11:00:36.846Z,97152.53
2022-09-01T11:01:48.911Z,97156.50
2022-09-01T11:04:31.649Z,97154.41
2022-09-01T11:05:52.887Z,97155.19
2022-09-01T11:07:14.673Z,97149.09
2022-09-01T11:08:29.219Z,97154.63
2022-09-01T11:09:42.371Z,97150.13
2022-09-01T11:10:50.518Z,97145.91
2022-09-01T11:12:12.084Z,97144.81
2022-09-01T11:13:15.999Z,97148.56
2022-09-01T11:14:22.225Z,97147.56
2022-09-01T11:15:33.471Z,97149.97
2022-09-01T11:16:47.954Z,97151.34
2022-09-01T11:17:51.285Z,97148.78
2022-09-01T11:18:53.399Z,97144.84
2022-09-01T11:19:58.429Z,97146.75
2022-09-01T11:21:35.506Z,97145.47
2022-09-01T11:22:41.969Z,97150.56
2022-09-01T11:23:44.091Z,97150.06
2022-09-01T11:24:54.430Z,97149.84
2022-09-01T11:26:21.401Z,97151.97
2022-09-01T11:27:41.821Z,97152.78
2022-09-01T11:28:43.974Z,97153.81
2022-09-01T11:29:56.661Z,97152.25
2022-09-01T11:30:59.388Z,97155.97
2022-09-01T11:32:01.752Z,97146.38
2022-09-01T11:33:09.611Z,97146.13
2022-09-01T11:34:21.837Z,97150.31
2022-09-01T11:35:25.895Z,97143.66
2022-09-01T11:36:30.305Z,97140.44
2022-09-01T11:37:33.582Z,97145.19
2022-09-01T11:38:46.378Z,97143.56
2022-09-01T11:39:53.351Z,97140.09
2022-09-01T11:40:57.397Z,97142.44
2022-09-01T11:42:04.268Z,97147.22
2022-09-01T11:43:16.684Z,97145.88
2022-09-01T11:44:23.477Z,97143.97
2022-09-01T11:45:30.938Z,97146.38
2022-09-01T11:46:35.180Z,97145.53
2022-09-01T11:47:39.369Z,97138.63
2022-09-01T11:48:46.132Z,97145.44
2022-09-01T11:50:02.510Z,97138.28
2022-09-01T11:51:05.239Z,97140.09
2022-09-01T11:52:07.134Z,97143.50
2022-09-01T11:53:10.856Z,97138.72
2022-09-01T11:54:13.718Z,97141.09
2022-09-01T11:55:28.444Z,97140.28
2022-09-01T11:56:30.347Z,97142.13
2022-09-01T11:57:37.026Z,97141.09
2022-09-01T11:58:42.369Z,97136.59
2022-09-01T11:59:44.210Z,97137.13
2022-09-01T12:00:46.110Z,97138.72
2022-09-01T12:01:47.953Z,97139.00
2022-09-01T12:02:51.534Z,97133.75
2022-09-01T12:03:53.450Z,97146.53
2022-09-01T12:04:56.693Z,97141.28
2022-09-01T12:06:04.298Z,97140.19
2022-09-01T12:07:08.107Z,97132.78
2022-09-01T12:08:14.996Z,97133.88
2022-09-01T12:09:16.908Z,97130.44
2022-09-01T12:10:29.666Z,97138.13
2022-09-01T12:11:33.065Z,97139.75
2022-09-01T12:12:36.317Z,97137.63
2022-09-01T12:13:40.026Z,97131.31
2022-09-01T12:15:04.508Z,97137.72
2022-09-01T12:16:21.210Z,97131.38
2022-09-01T12:17:23.706Z,97135.66
2022-09-01T12:18:28.179Z,97133.00
2022-09-01T12:19:35.254Z,97130.63
2022-09-01T12:20:39.388Z,97132.31
2022-09-01T12:21:45.745Z,97136.28
2022-09-01T12:22:47.627Z,97133.66
2022-09-01T12:23:49.815Z,97133.66
2022-09-01T12:24:53.474Z,97132.88
2022-09-01T12:25:56.742Z,97131.53
2022-09-01T12:26:59.290Z,97134.47
2022-09-01T12:28:01.981Z,97128.41
2022-09-01T12:29:04.925Z,97131.03
2022-09-01T12:30:07.902Z,97124.94
2022-09-01T12:31:15.249Z,97129.72
2022-09-01T12:32:17.667Z,97134.75
2022-09-01T12:33:24.171Z,97135.34
2022-09-01T12:34:29.300Z,97127.59
2022-09-01T12:35:31.095Z,97129.97
2022-09-01T12:36:37.346Z,97133.66
2022-09-01T12:37:39.274Z,97128.84
2022-09-01T12:38:41.209Z,97120.72
2022-09-01T12:39:48.238Z,97116.97
2022-09-01T12:40:51.301Z,97117.03
2022-09-01T12:42:05.698Z,97130.00
2022-09-01T12:43:07.908Z,97120.84
2022-09-01T12:44:30.514Z,97121.84
2022-09-01T12:45:38.616Z,97118.41
2022-09-01T12:46:42.635Z,97117.53
2022-09-01T12:47:50.370Z,97122.38
2022-09-01T12:48:52.422Z,97127.72
2022-09-01T12:49:55.684Z,97128.56
2022-09-01T12:50:59.519Z,97127.28
2022-09-01T12:52:11.070Z,97129.16
2022-09-01T12:53:15.584Z,97139.81
2022-09-01T12:54:25.098Z,97138.00
2022-09-01T12:55:50.538Z,97139.56
2022-09-01T12:56:52.538Z,97143.84
2022-09-01T12:57:59.221Z,97137.41
2022-09-01T12:59:11.963Z,97141.41
2022-09-01T13:00:20.063Z,97143.25
2022-09-01T13:01:26.667Z,97138.72
2022-09-01T13:02:33.840Z,97138.72
2022-09-01T13:03:36.296Z,97135.50
2022-09-01T13:04:38.175Z,97141.84
2022-09-01T13:05:44.151Z,97146.09
2022-09-01T13:06:45.960Z,97140.75
2022-09-01T13:07:47.962Z,97148.69
2022-09-01T13:08:49.780Z,97143.59
2022-09-01T13:09:51.647Z,97148.09
2022-09-01T13:10:54.750Z,97149.41
2022-09-01T13:12:10.050Z,97149.63
2022-09-01T13:13:12.624Z,97154.63
2022-09-01T13:14:15.619Z,97152.47
2022-09-01T13:15:18.215Z,97154.84
2022-09-01T13:16:20.035Z,97153.25
2022-09-01T13:17:22.117Z,97155.31